Aérodrome :
LOGIN :

S'inscrire | Disclaimer

   EN    FR    IT 

 










Légende :    VFR   VFR Marginal   IFR   IFR Intensif   IFR Très Intensif
Visi : 
Plafond : 
>= 8 km
>= 3000ft
5 à 8 km
1000 à 3000 ft
1500m à 5 km
500 à 1000 ft
800 à 1500m
200 à 500 ft
< 800m
< 200 ft
Symboles :   Orages  Brouillard  Fortes neiges  Fortes précipitations  Vent > 20 kt
SIGMETs :   Divers  Orages  Givrage  Turbulence  Onde Orograph.  Cendres Volcan.







- Altitude de l'aérodrome : 157 ft
- Code IATA : LIL
- Voir les cartes d'approche


LFQQ - Lille Lesquin

DERNIER METAR :
  • 181500Z AUTO 25010KT 9999 FEW024 SCT031 BKN037 20/15 Q1012 TEMPO 4000 SHRA BKN025TCU

METARs EXPIRÉS :
  • 181430Z AUTO 25014KT 9999 FEW026 BKN034 OVC044 21/15 Q1012 TEMPO 4000 SHRA BKN025TCU
  • 181400Z AUTO 25013KT 9999 OVC041 22/15 Q1012 TEMPO 4000 SHRA BKN025TCU
  • 181330Z AUTO 27013KT 9999 OVC044 22/15 Q1012 TEMPO 4000 SHRA BKN025TCU
  • 181300Z AUTO 24011KT 210V270 9999 OVC047 23/12 Q1012 TEMPO 4000 SHRA BKN025TCU
  • 181230Z AUTO 23011KT 200V280 9999 BKN045 BKN060 BKN078 24/12 Q1011 TEMPO 4000 SHRA BKN025TCU

TAF TAF LFQQ
Valide du 18 à 12h jusqu'au 19 à 18h UTC


181100Z 1812/1918 23007KT CAVOK
PROB40
TEMPO 1813/1816 4000 SHRA BKN025TCU
ATIS : +33 3 20 16 19 54
Pas de NOTAMs connus pour ce terrain.



MET'MAP, la Météo Aéronautique d'un coup d'oeil ! - Copyright ORBIFLY Décembre 2007 - Disclaimer

ORBIFLY MET'MAP TEAM :

Programmation & Développement : Alexandra Zaïnal
Conception & Développement : Baudouin d'Aumeries
Co-Programmation & Développement : Marc-Olivier Méhu
Soutien technique & logistique : Manuel Goepfert

Contact : metmap@orbifly.com




SOURCES & CREDITS :

   NOAA